Airport View

Enter AWOS ICAO identifier for current METAR.

ex. KFNL

PAWM 202215Z AUTO 22004KT 1/4SM FG OVC002 01/00 A3059 RMK AO2 RAE2157 FZRANO PNO $

20 Oct 2020 22:56

Frequency: 121.45

Phone: 907-638-2103

Other Area AWOS: PAGL - PFEL - PAOM - PAKK

TAF AMD PAOM 201915Z 2019/2118 VRB03KT P6SM SCT015 TEMPO 2020/2024 6SM -SHRASN BKN015 FM210000 20005KT P6SM VCSH OVC025 FM210300 22005KT 5SM -RASN BR OVC015 FM210600 23005KT 3SM -RASN BR OVC015